createdAt,value
2023-03-24T00:13:15.165Z,9.62
2023-03-24T00:18:46.862Z,9.17
2023-03-24T00:24:14.693Z,9.62
2023-03-24T00:29:28.158Z,9.31
2023-03-24T00:34:47.124Z,9.35
2023-03-24T00:39:54.889Z,9.40
2023-03-24T00:46:11.502Z,9.26
2023-03-24T01:02:43.914Z,9.30
2023-03-24T01:07:46.128Z,9.46
2023-03-24T01:13:12.312Z,9.79
2023-03-24T01:18:42.519Z,9.58
2023-03-24T01:23:54.403Z,9.51
2023-03-24T01:29:01.671Z,9.42
2023-03-24T01:34:09.252Z,9.91
2023-03-24T01:44:36.802Z,9.53
2023-03-24T01:49:43.263Z,9.81
2023-03-24T01:55:01.750Z,9.86
2023-03-24T02:05:46.128Z,9.95
2023-03-24T02:10:48.902Z,9.68
2023-03-24T02:16:12.676Z,9.96
2023-03-24T02:22:03.794Z,9.95
2023-03-24T02:27:38.793Z,9.46
2023-03-24T02:33:17.701Z,9.51
2023-03-24T02:38:46.233Z,9.50
2023-03-24T02:44:47.539Z,9.34
2023-03-24T02:50:45.135Z,8.92
2023-03-24T02:55:58.962Z,9.01
2023-03-24T03:01:33.126Z,9.16
2023-03-24T03:06:58.864Z,8.97
2023-03-24T03:12:20.793Z,8.92
2023-03-24T03:17:43.123Z,8.93
2023-03-24T03:23:38.336Z,8.74
2023-03-24T03:28:44.498Z,8.98
2023-03-24T03:34:26.060Z,8.49
2023-03-24T03:39:31.263Z,8.48
2023-03-24T03:44:58.241Z,8.82
2023-03-24T03:50:18.623Z,8.54
2023-03-24T03:55:20.502Z,8.12
2023-03-24T04:00:24.781Z,8.29
2023-03-24T04:05:36.414Z,8.07
2023-03-24T04:11:15.911Z,8.11
2023-03-24T04:17:14.196Z,8.07
2023-03-24T04:22:44.150Z,7.72
2023-03-24T04:28:10.322Z,7.87
2023-03-24T04:33:31.986Z,7.84
2023-03-24T04:38:41.697Z,7.43
2023-03-24T04:43:45.024Z,7.62
2023-03-24T04:49:08.194Z,7.86
2023-03-24T04:54:09.913Z,7.54
2023-03-24T04:59:28.356Z,7.71
2023-03-24T05:04:37.307Z,7.46
2023-03-24T05:09:54.080Z,7.65
2023-03-24T05:15:09.341Z,7.77
2023-03-24T05:26:09.222Z,7.74
2023-03-24T05:32:46.122Z,7.70
2023-03-24T05:38:02.697Z,7.72
2023-03-24T05:43:04.423Z,7.47
2023-03-24T05:48:12.113Z,7.30
2023-03-24T05:53:15.191Z,7.64
2023-03-24T06:03:53.228Z,7.34
2023-03-24T06:08:54.995Z,7.32
2023-03-24T06:14:22.601Z,7.73
2023-03-24T06:19:24.793Z,7.51
2023-03-24T06:24:51.142Z,7.78
2023-03-24T06:30:12.742Z,7.34
2023-03-24T06:35:15.832Z,7.58
2023-03-24T06:40:31.356Z,7.73
2023-03-24T07:29:34.276Z,8.59
2023-03-24T07:35:01.538Z,8.91
2023-03-24T07:46:05.830Z,8.77
2023-03-24T07:51:13.352Z,8.82
2023-03-24T07:56:16.031Z,9.02
2023-03-24T08:06:57.237Z,9.22
2023-03-24T08:12:02.160Z,9.25
2023-03-24T08:17:53.270Z,9.63
2023-03-24T08:22:55.657Z,9.94
2023-03-24T08:27:57.258Z,9.94
2023-03-24T08:33:01.995Z,9.97
2023-03-24T08:38:12.071Z,10.22
2023-03-24T08:43:36.655Z,10.49
2023-03-24T08:48:57.669Z,10.39
2023-03-24T08:54:32.072Z,10.31
2023-03-24T09:06:07.628Z,10.27
2023-03-24T09:11:33.183Z,10.64
2023-03-24T09:17:00.126Z,10.80
2023-03-24T09:22:27.509Z,10.93
2023-03-24T09:27:29.924Z,10.96
2023-03-24T09:32:33.979Z,11.06
2023-03-24T09:37:52.513Z,10.74
2023-03-24T09:43:36.009Z,10.88
2023-03-24T09:54:28.354Z,11.16
2023-03-24T09:59:36.364Z,11.37
2023-03-24T10:04:47.633Z,11.19
2023-03-24T10:10:45.814Z,11.26
2023-03-24T10:16:14.536Z,11.75
2023-03-24T10:21:41.472Z,11.66
2023-03-24T10:27:10.496Z,11.44
2023-03-24T10:33:02.494Z,11.61
2023-03-24T10:38:18.613Z,11.14
2023-03-24T10:43:25.116Z,11.38
2023-03-24T11:00:40.021Z,12.00
2023-03-24T11:12:38.162Z,12.39
2023-03-24T11:18:30.354Z,12.33
2023-03-24T11:30:08.362Z,12.53
2023-03-24T12:11:21.487Z,12.27
2023-03-24T12:17:07.333Z,12.56
2023-03-24T12:23:11.289Z,11.87
2023-03-24T12:28:42.741Z,12.13
2023-03-24T12:58:41.750Z,11.93
2023-03-24T13:04:03.256Z,11.99
2023-03-24T13:09:55.981Z,11.88
2023-03-24T13:15:24.784Z,11.72
2023-03-24T13:21:03.386Z,12.05
2023-03-24T13:32:26.439Z,11.43
2023-03-24T13:37:57.582Z,11.71
2023-03-24T13:43:22.207Z,11.53
2023-03-24T13:48:33.461Z,11.70
2023-03-24T13:53:46.026Z,11.54
2023-03-24T13:59:37.398Z,11.63
2023-03-24T14:04:46.943Z,11.62
2023-03-24T14:10:11.563Z,11.59
2023-03-24T14:15:25.438Z,11.71
2023-03-24T14:20:44.323Z,11.59
2023-03-24T14:26:19.160Z,11.34
2023-03-24T14:31:36.584Z,11.45
2023-03-24T14:36:43.715Z,11.53
2023-03-24T14:41:47.173Z,11.18
2023-03-24T14:46:50.387Z,11.30
2023-03-24T14:51:55.002Z,11.33
2023-03-24T14:56:58.619Z,11.29
2023-03-24T15:02:15.869Z,11.27
2023-03-24T15:07:17.423Z,10.89
2023-03-24T15:12:20.692Z,11.11
2023-03-24T15:17:24.049Z,11.16
2023-03-24T15:22:25.641Z,11.22
2023-03-24T15:27:29.985Z,11.15
2023-03-24T15:32:38.835Z,10.62
2023-03-24T15:37:48.148Z,10.80
2023-03-24T15:42:50.635Z,10.81
2023-03-24T15:48:22.871Z,10.75
2023-03-24T15:53:30.615Z,10.73
2023-03-24T15:58:32.405Z,10.79
2023-03-24T16:03:35.037Z,10.58
2023-03-24T16:14:46.322Z,10.61
2023-03-24T16:19:47.972Z,10.41
2023-03-24T16:24:49.643Z,10.45
2023-03-24T16:29:51.366Z,10.51
2023-03-24T16:35:04.662Z,10.22
2023-03-24T16:46:27.012Z,10.46
2023-03-24T16:51:29.762Z,10.08
2023-03-24T16:56:39.524Z,10.12
2023-03-24T17:02:03.277Z,9.86
2023-03-24T17:07:20.381Z,10.04
2023-03-24T17:12:21.955Z,9.83
2023-03-24T17:17:28.232Z,9.99
2023-03-24T17:22:43.845Z,9.41
2023-03-24T17:28:17.168Z,9.73
2023-03-24T17:33:18.822Z,9.70
2023-03-24T17:38:26.034Z,9.28
2023-03-24T17:43:33.931Z,9.39
2023-03-24T17:48:37.180Z,9.53
2023-03-24T17:53:38.848Z,9.34
2023-03-24T17:58:47.549Z,9.44
2023-03-24T18:04:36.972Z,9.47
2023-03-24T18:09:39.029Z,9.26
2023-03-24T18:20:29.120Z,9.24
2023-03-24T18:25:46.056Z,8.83
2023-03-24T18:36:42.973Z,8.84
2023-03-24T18:41:44.697Z,8.97
2023-03-24T18:46:46.377Z,9.08
2023-03-24T18:51:51.595Z,9.13
2023-03-24T18:57:04.794Z,9.10
2023-03-24T19:02:17.950Z,8.93
2023-03-24T19:12:51.705Z,9.18
2023-03-24T19:18:03.709Z,8.97
2023-03-24T19:23:12.043Z,8.92
2023-03-24T19:28:22.698Z,8.74
2023-03-24T19:39:08.517Z,8.58
2023-03-24T19:44:10.388Z,8.64
2023-03-24T19:49:12.051Z,8.77
2023-03-24T19:54:13.799Z,8.42
2023-03-24T19:59:30.341Z,8.94
2023-03-24T20:04:41.418Z,9.05
2023-03-24T20:09:46.462Z,8.53
2023-03-24T20:14:48.146Z,8.54
2023-03-24T20:19:49.901Z,8.97
2023-03-24T20:25:03.805Z,8.96
2023-03-24T20:30:12.341Z,8.91
2023-03-24T20:35:33.400Z,8.53
2023-03-24T20:40:36.226Z,8.72
2023-03-24T20:45:47.486Z,8.69
2023-03-24T20:50:53.450Z,8.35
2023-03-24T20:56:19.099Z,8.68
2023-03-24T21:01:36.047Z,8.49
2023-03-24T21:06:49.355Z,8.45
2023-03-24T21:11:51.400Z,8.63
2023-03-24T21:16:53.353Z,8.48
2023-03-24T21:22:18.512Z,8.38
2023-03-24T21:27:21.323Z,8.59
2023-03-24T21:32:23.684Z,8.32
2023-03-24T21:37:25.600Z,8.37
2023-03-24T21:42:30.703Z,8.46
2023-03-24T21:47:49.152Z,8.44
2023-03-24T21:53:00.122Z,8.53
2023-03-24T21:58:01.873Z,8.65
2023-03-24T22:03:03.874Z,8.62
2023-03-24T22:08:22.470Z,8.25
2023-03-24T22:13:25.958Z,8.19
2023-03-24T22:18:30.161Z,8.34
2023-03-24T22:23:33.619Z,8.36
2023-03-24T22:28:38.936Z,8.15
2023-03-24T22:33:42.435Z,8.01
2023-03-24T22:38:46.993Z,8.11
2023-03-24T22:43:53.505Z,8.04
2023-03-24T22:49:05.766Z,8.41
2023-03-24T22:54:07.580Z,8.20
2023-03-24T22:59:09.395Z,8.26
2023-03-24T23:04:11.407Z,8.50
2023-03-24T23:09:15.790Z,8.57
2023-03-24T23:14:18.530Z,8.19
2023-03-24T23:19:35.372Z,8.17
2023-03-24T23:24:39.669Z,8.30
2023-03-24T23:29:42.015Z,7.94
2023-03-24T23:34:46.204Z,7.95
2023-03-24T23:39:50.382Z,8.27
2023-03-24T23:45:06.900Z,8.15
2023-03-24T23:50:09.652Z,7.75
2023-03-24T23:55:36.764Z,8.29
